Time;durP1;ratioP1;P1;durP2;ratioP2;P2;SDS_P1;SDS_P2;PMS_P1;PMS_P2;Temp;Humidity;BMP_temperature;BMP_pressure;BME280_temperature;BME280_humidity;BME280_pressure;Samples;Min_cycle;Max_cycle;Signal;HPM_P1;HPM_P2
2021/05/14 00:00:50;;;;;;;3.70;3.28;;;12.50;99.90;;;;;;5080599;28;20208;-66
2021/05/14 00:03:17;;;;;;;2.88;2.58;;;12.50;99.90;;;;;;5080993;28;20268;-68
2021/05/14 00:05:45;;;;;;;4.35;2.78;;;12.50;99.90;;;;;;5075223;28;20221;-69
2021/05/14 00:08:12;;;;;;;4.38;3.45;;;12.50;99.90;;;;;;5071588;28;20436;-67
2021/05/14 00:10:39;;;;;;;6.47;4.78;;;12.50;99.90;;;;;;5079846;28;20343;-68
2021/05/14 00:13:08;;;;;;;5.35;4.00;;;12.60;99.90;;;;;;5080398;28;20269;-67
2021/05/14 00:15:35;;;;;;;5.10;3.13;;;12.60;99.90;;;;;;5079951;28;20207;-67
2021/05/14 00:18:03;;;;;;;5.32;4.35;;;12.60;99.90;;;;;;5080049;28;20250;-67
2021/05/14 00:20:30;;;;;;;3.05;2.75;;;12.50;99.90;;;;;;5080271;28;20265;-67
2021/05/14 00:22:57;;;;;;;3.60;3.03;;;12.50;99.90;;;;;;5073109;28;20517;-66
2021/05/14 00:25:24;;;;;;;4.78;3.80;;;12.50;99.90;;;;;;5072518;28;20214;-68
2021/05/14 00:27:51;;;;;;;4.70;3.45;;;12.50;99.90;;;;;;5080343;28;20740;-67
2021/05/14 00:30:19;;;;;;;3.42;3.13;;;12.50;99.90;;;;;;5078928;28;20219;-68
2021/05/14 00:32:46;;;;;;;6.22;3.85;;;12.50;99.90;;;;;;5080377;28;20259;-69
2021/05/14 00:35:13;;;;;;;2.95;2.72;;;12.50;99.90;;;;;;5079906;28;20245;-66
2021/05/14 00:37:40;;;;;;;3.72;2.85;;;12.50;99.90;;;;;;5079874;28;20256;-67
2021/05/14 00:40:07;;;;;;;4.70;4.22;;;12.50;99.90;;;;;;5080153;28;20230;-68
2021/05/14 00:42:35;;;;;;;4.20;3.25;;;12.60;99.90;;;;;;5080228;28;20252;-67
2021/05/14 00:45:05;;;;;;;4.22;3.33;;;12.60;99.90;;;;;;5077654;28;20253;-66
2021/05/14 00:47:32;;;;;;;4.22;3.88;;;12.50;99.90;;;;;;5069335;28;20273;-67
2021/05/14 00:49:59;;;;;;;4.32;3.25;;;12.60;99.90;;;;;;5079948;28;20280;-68
2021/05/14 00:52:27;;;;;;;4.53;3.95;;;12.60;99.90;;;;;;5080105;28;20214;-67
2021/05/14 00:54:55;;;;;;;3.65;3.20;;;12.60;99.90;;;;;;5079234;28;20197;-67
2021/05/14 00:57:22;;;;;;;4.88;4.28;;;12.60;99.90;;;;;;5080155;28;20227;-66
2021/05/14 00:59:50;;;;;;;4.55;3.00;;;12.60;99.90;;;;;;5075982;28;20210;-67
2021/05/14 01:02:18;;;;;;;8.82;3.97;;;12.50;99.90;;;;;;5082098;28;20202;-66
2021/05/14 01:04:45;;;;;;;4.40;4.00;;;12.60;99.90;;;;;;5083979;28;20240;-67
2021/05/14 01:07:13;;;;;;;4.55;3.60;;;12.50;99.90;;;;;;5076815;28;20211;-68
2021/05/14 01:09:42;;;;;;;4.50;3.42;;;12.50;99.90;;;;;;5083522;28;20323;-68
2021/05/14 01:12:11;;;;;;;4.25;3.85;;;12.50;99.90;;;;;;5083701;28;20462;-67
2021/05/14 01:14:41;;;;;;;3.88;3.58;;;12.50;99.90;;;;;;5075094;28;20210;-68
2021/05/14 01:17:08;;;;;;;3.47;3.17;;;12.50;99.90;;;;;;5083634;28;20297;-68
2021/05/14 01:19:35;;;;;;;5.03;4.07;;;12.50;99.90;;;;;;5083447;28;20218;-67
2021/05/14 01:22:03;;;;;;;5.43;4.93;;;12.50;99.90;;;;;;5083460;28;20244;-66
2021/05/14 01:24:32;;;;;;;4.97;3.60;;;12.50;99.90;;;;;;5083714;28;20214;-66
2021/05/14 01:27:00;;;;;;;5.97;3.85;;;12.50;99.90;;;;;;5079871;28;20218;-66
2021/05/14 01:29:28;;;;;;;6.55;4.68;;;12.50;99.90;;;;;;5076434;28;20660;-67
2021/05/14 01:31:55;;;;;;;8.50;4.18;;;12.50;99.90;;;;;;5069026;28;20204;-66
2021/05/14 01:34:23;;;;;;;7.28;4.78;;;12.60;99.90;;;;;;5080358;28;20221;-67
2021/05/14 01:36:50;;;;;;;6.05;4.35;;;12.50;99.90;;;;;;5081962;28;20267;-68
2021/05/14 01:39:22;;;;;;;4.25;3.85;;;12.60;99.90;;;;;;5082655;28;20564;-67
2021/05/14 01:41:51;;;;;;;3.58;3.28;;;12.50;99.90;;;;;;5082929;28;20274;-67
2021/05/14 01:44:20;;;;;;;3.97;3.58;;;12.50;99.90;;;;;;5083099;28;20199;-67
2021/05/14 01:46:49;;;;;;;4.50;3.80;;;12.50;99.90;;;;;;5082825;28;20213;-67
2021/05/14 01:49:16;;;;;;;4.55;4.00;;;12.60;99.90;;;;;;5082573;28;20206;-67
2021/05/14 01:51:43;;;;;;;6.30;4.00;;;12.60;99.90;;;;;;5081397;28;20267;-67
2021/05/14 01:54:11;;;;;;;4.80;4.30;;;12.50;99.90;;;;;;5082412;28;20251;-67
2021/05/14 01:56:38;;;;;;;4.18;3.25;;;12.50;99.90;;;;;;5082465;28;20210;-68
2021/05/14 01:59:05;;;;;;;3.97;3.67;;;12.50;99.90;;;;;;5082715;28;20522;-68
2021/05/14 02:01:32;;;;;;;6.20;4.22;;;12.60;99.90;;;;;;5081247;28;20195;-69
2021/05/14 02:03:59;;;;;;;4.68;3.45;;;12.70;99.90;;;;;;5115092;28;20198;-67
2021/05/14 02:06:26;;;;;;;4.38;3.17;;;12.60;99.90;;;;;;5079623;28;20213;-69
2021/05/14 02:08:53;;;;;;;3.63;3.30;;;12.60;99.90;;;;;;5082604;28;20217;-68
2021/05/14 02:11:20;;;;;;;5.13;4.80;;;12.60;99.90;;;;;;5081774;28;20202;-68
2021/05/14 02:13:47;;;;;;;7.07;3.90;;;12.50;99.90;;;;;;5080482;28;20207;-66
2021/05/14 02:16:15;;;;;;;6.65;3.40;;;12.50;99.90;;;;;;5073860;28;20202;-67
2021/05/14 02:18:44;;;;;;;4.70;3.55;;;12.50;99.90;;;;;;5082307;28;20233;-67
2021/05/14 02:21:11;;;;;;;4.60;3.70;;;12.50;99.90;;;;;;5082959;28;20197;-67
2021/05/14 02:23:38;;;;;;;4.38;3.88;;;12.50;99.90;;;;;;5081477;28;20209;-67
2021/05/14 02:26:06;;;;;;;3.25;2.95;;;12.50;99.90;;;;;;5081708;28;20520;-67
2021/05/14 02:28:33;;;;;;;7.22;3.42;;;12.50;99.90;;;;;;5082118;28;20257;-68
2021/05/14 02:31:01;;;;;;;12.82;3.40;;;12.50;99.90;;;;;;5078798;28;20388;-67
2021/05/14 02:33:29;;;;;;;4.28;3.15;;;12.50;99.90;;;;;;5069866;28;20207;-67
2021/05/14 02:35:56;;;;;;;4.88;4.38;;;12.50;99.90;;;;;;5082228;28;20578;-66
2021/05/14 02:38:24;;;;;;;6.90;3.80;;;12.60;99.90;;;;;;5081452;28;20214;-67
2021/05/14 02:40:51;;;;;;;5.10;4.18;;;12.70;99.90;;;;;;5082289;28;20248;-69
2021/05/14 02:43:18;;;;;;;3.75;2.85;;;12.80;99.90;;;;;;5081133;28;20214;-66
2021/05/14 02:45:45;;;;;;;3.75;3.30;;;12.70;99.90;;;;;;5069394;28;20206;-70
2021/05/14 02:48:14;;;;;;;3.10;2.83;;;12.70;99.90;;;;;;5080368;28;20209;-67
2021/05/14 02:50:41;;;;;;;4.40;2.88;;;12.70;99.90;;;;;;5081343;28;20207;-67
2021/05/14 02:53:08;;;;;;;3.55;3.10;;;12.70;99.90;;;;;;5081998;28;20199;-66
2021/05/14 02:55:35;;;;;;;4.43;4.03;;;12.70;99.90;;;;;;5081487;28;20201;-67
2021/05/14 02:58:02;;;;;;;2.80;2.60;;;12.70;99.90;;;;;;5081510;28;20233;-68
2021/05/14 03:00:29;;;;;;;3.15;2.90;;;12.70;99.90;;;;;;5082010;28;20237;-66
2021/05/14 03:02:56;;;;;;;3.10;2.55;;;12.70;99.90;;;;;;5081196;28;20214;-67
2021/05/14 03:05:25;;;;;;;3.33;2.95;;;12.70;99.90;;;;;;5078642;28;20202;-66
2021/05/14 03:07:52;;;;;;;3.10;2.67;;;12.70;99.90;;;;;;5081314;28;20211;-67
2021/05/14 03:10:20;;;;;;;2.90;2.67;;;12.60;99.90;;;;;;5067513;28;20245;-67
2021/05/14 03:12:47;;;;;;;3.40;2.72;;;12.70;99.90;;;;;;5081242;28;20207;-67
2021/05/14 03:15:14;;;;;;;2.50;2.30;;;12.80;99.90;;;;;;5068116;28;20214;-67
2021/05/14 03:17:41;;;;;;;3.28;2.97;;;12.80;99.90;;;;;;5080941;28;20221;-66
2021/05/14 03:20:09;;;;;;;3.70;3.40;;;12.70;99.90;;;;;;5078934;28;20213;-67
2021/05/14 03:22:36;;;;;;;2.95;2.75;;;12.70;99.90;;;;;;5080249;28;20210;-68
2021/05/14 03:25:05;;;;;;;2.65;2.33;;;12.70;99.90;;;;;;5064571;28;20211;-66
2021/05/14 03:27:32;;;;;;;3.75;2.25;;;12.70;99.90;;;;;;5063593;28;20220;-67
2021/05/14 03:30:00;;;;;;;3.15;2.85;;;12.60;99.90;;;;;;5081054;28;20211;-67
2021/05/14 03:32:27;;;;;;;2.65;1.83;;;12.70;99.90;;;;;;5079670;28;20217;-67
2021/05/14 03:34:54;;;;;;;3.78;3.45;;;12.60;99.90;;;;;;5081376;28;20210;-65
2021/05/14 03:37:21;;;;;;;3.47;3.15;;;12.50;99.90;;;;;;5081552;28;20238;-66
2021/05/14 03:39:52;;;;;;;3.60;3.30;;;12.50;99.90;;;;;;5068191;28;20247;-66
2021/05/14 03:42:25;;;;;;;5.13;3.53;;;12.50;99.90;;;;;;5077535;28;20520;-67
2021/05/14 03:44:53;;;;;;;2.70;2.50;;;12.50;99.90;;;;;;5080717;28;20205;-68
2021/05/14 03:47:22;;;;;;;4.32;3.13;;;12.50;99.90;;;;;;5080279;28;20244;-70
2021/05/14 03:49:50;;;;;;;3.00;2.55;;;12.50;99.90;;;;;;5079264;28;20198;-67
2021/05/14 03:52:17;;;;;;;3.20;2.58;;;12.50;99.90;;;;;;5080913;28;20655;-71
2021/05/14 03:54:44;;;;;;;2.78;2.58;;;12.50;99.90;;;;;;5080258;28;20575;-68
2021/05/14 03:57:11;;;;;;;2.50;2.30;;;12.50;99.90;;;;;;5078545;28;20214;-68
2021/05/14 03:59:39;;;;;;;2.17;1.95;;;12.50;99.90;;;;;;5080205;28;20216;-66
2021/05/14 04:02:06;;;;;;;3.33;3.05;;;12.60;99.90;;;;;;5080339;28;20206;-68
2021/05/14 04:04:33;;;;;;;3.50;3.20;;;12.50;99.90;;;;;;5080292;28;20210;-68
2021/05/14 04:07:03;;;;;;;2.63;2.42;;;12.50;99.90;;;;;;5074383;28;20225;-69
2021/05/14 04:09:33;;;;;;;6.22;4.88;;;12.50;99.90;;;;;;5080572;28;20243;-66
2021/05/14 04:14:34;;;;;;;2.88;2.67;;;12.50;99.90;;;;;;5070632;28;20496;-67
2021/05/14 04:17:16;;;;;;;5.60;2.63;;;12.50;99.90;;;;;;5079613;28;20206;-69
2021/05/14 04:19:43;;;;;;;3.80;3.50;;;12.50;99.90;;;;;;5080307;28;20488;-67
2021/05/14 04:22:10;;;;;;;4.65;2.95;;;12.60;99.90;;;;;;5080749;28;20195;-67
2021/05/14 04:24:37;;;;;;;4.45;3.63;;;12.60;99.90;;;;;;5074888;28;20527;-68
2021/05/14 04:27:04;;;;;;;3.05;2.70;;;12.60;99.90;;;;;;5071460;28;20210;-67
2021/05/14 04:29:31;;;;;;;5.05;4.57;;;12.60;99.90;;;;;;5079578;28;20198;-67
2021/05/14 04:31:58;;;;;;;9.85;6.30;;;12.60;99.90;;;;;;5080229;28;20214;-66
2021/05/14 04:34:27;;;;;;;3.58;2.67;;;12.70;99.90;;;;;;5064413;28;20234;-68
2021/05/14 04:37:00;;;;;;;2.67;2.47;;;12.70;99.90;;;;;;5079734;28;20198;-68
2021/05/14 04:39:27;;;;;;;3.92;3.63;;;12.60;99.90;;;;;;5079517;28;20309;-69
2021/05/14 04:41:55;;;;;;;6.50;3.75;;;12.60;99.90;;;;;;5067592;28;20231;-67
2021/05/14 04:44:23;;;;;;;4.18;3.80;;;12.60;99.90;;;;;;5079423;28;20270;-69
2021/05/14 04:46:54;;;;;;;4.07;3.30;;;12.60;99.90;;;;;;5078738;28;20225;-69
2021/05/14 04:49:21;;;;;;;3.42;3.13;;;12.60;99.90;;;;;;5079185;28;20208;-67
2021/05/14 04:51:49;;;;;;;3.45;3.15;;;12.70;99.90;;;;;;5080083;28;20202;-69
2021/05/14 04:54:16;;;;;;;3.88;3.58;;;12.70;99.90;;;;;;5065188;28;20220;-68
2021/05/14 04:56:43;;;;;;;5.22;3.85;;;12.70;99.90;;;;;;5079533;28;20195;-68
2021/05/14 04:59:11;;;;;;;3.72;3.40;;;12.80;99.90;;;;;;5079656;28;20272;-68
2021/05/14 05:01:40;;;;;;;3.75;3.40;;;12.80;99.90;;;;;;5076258;28;20200;-67
2021/05/14 05:04:08;;;;;;;9.52;4.50;;;12.80;99.90;;;;;;5079669;28;20222;-67
2021/05/14 05:06:35;;;;;;;4.15;3.47;;;12.90;99.90;;;;;;5079324;28;20525;-67
2021/05/14 05:09:02;;;;;;;8.20;4.72;;;13.00;99.90;;;;;;5078952;28;20725;-67
2021/05/14 05:11:29;;;;;;;9.02;3.70;;;13.00;99.90;;;;;;5079354;28;20257;-67
2021/05/14 05:13:56;;;;;;;4.20;3.80;;;13.00;99.90;;;;;;5078179;28;20207;-68
2021/05/14 05:16:23;;;;;;;6.93;4.32;;;13.00;99.90;;;;;;5075896;28;20207;-68
2021/05/14 05:18:51;;;;;;;6.88;4.03;;;13.10;99.90;;;;;;5078952;28;20243;-66
2021/05/14 05:21:18;;;;;;;3.65;3.35;;;13.10;99.90;;;;;;5078384;28;20416;-67
2021/05/14 05:23:45;;;;;;;2.83;2.63;;;13.10;99.90;;;;;;5078843;28;20218;-69
2021/05/14 05:26:12;;;;;;;3.72;3.42;;;13.20;99.90;;;;;;5077871;28;20213;-67
2021/05/14 05:28:39;;;;;;;2.75;2.42;;;13.20;99.90;;;;;;5078235;28;20353;-66
2021/05/14 05:31:06;;;;;;;2.35;2.17;;;13.10;99.90;;;;;;5074935;28;20207;-68
2021/05/14 05:33:33;;;;;;;4.97;3.47;;;13.20;99.90;;;;;;5077005;28;20210;-68
2021/05/14 05:36:00;;;;;;;2.88;2.67;;;13.30;99.90;;;;;;5078080;28;20256;-66
2021/05/14 05:38:27;;;;;;;1.85;1.75;;;13.30;99.90;;;;;;5068059;28;20215;-66
2021/05/14 05:40:55;;;;;;;2.15;2.05;;;13.20;99.90;;;;;;5061901;28;20206;-66
2021/05/14 05:43:26;;;;;;;3.55;2.70;;;13.10;99.90;;;;;;5062459;28;20234;-67
2021/05/14 05:45:55;;;;;;;1.65;1.50;;;13.10;99.90;;;;;;5077919;28;20238;-67
2021/05/14 05:48:22;;;;;;;2.65;2.45;;;13.10;99.90;;;;;;5080904;28;20214;-66
2021/05/14 05:50:50;;;;;;;2.42;2.22;;;13.10;99.90;;;;;;5078395;28;20207;-66
2021/05/14 05:53:18;;;;;;;2.30;2.05;;;13.10;99.90;;;;;;5079502;28;20218;-68
2021/05/14 05:55:45;;;;;;;2.50;2.00;;;13.10;99.90;;;;;;5082109;28;20207;-66
2021/05/14 05:58:14;;;;;;;2.85;2.65;;;13.20;99.90;;;;;;5082416;28;20282;-66
2021/05/14 06:00:42;;;;;;;4.60;2.40;;;13.20;99.90;;;;;;5080898;28;20229;-66
2021/05/14 06:03:11;;;;;;;1.27;1.20;;;13.20;99.90;;;;;;5078691;28;20558;-66
2021/05/14 06:05:38;;;;;;;1.52;1.40;;;13.20;99.90;;;;;;5081742;28;20222;-70
2021/05/14 06:08:07;;;;;;;1.88;1.75;;;13.20;99.90;;;;;;5081765;28;20213;-68
2021/05/14 06:10:35;;;;;;;4.22;1.70;;;13.10;99.90;;;;;;5076032;28;20513;-68
2021/05/14 06:13:03;;;;;;;2.15;1.95;;;13.20;99.90;;;;;;5080254;28;20392;-68
2021/05/14 06:15:30;;;;;;;1.98;1.75;;;13.20;99.90;;;;;;5078436;28;20555;-67
2021/05/14 06:17:58;;;;;;;2.95;2.20;;;13.30;99.90;;;;;;5075058;28;20290;-68
2021/05/14 06:20:28;;;;;;;1.92;1.45;;;13.40;99.90;;;;;;5077603;28;20338;-67
2021/05/14 06:22:55;;;;;;;1.58;1.30;;;13.50;99.90;;;;;;5081050;28;20229;-67
2021/05/14 06:25:27;;;;;;;2.22;2.05;;;13.60;99.90;;;;;;5075469;28;20202;-67
2021/05/14 06:27:56;;;;;;;4.82;4.32;;;13.80;99.90;;;;;;5081180;28;20320;-68
2021/05/14 06:30:24;;;;;;;2.78;2.28;;;14.00;99.90;;;;;;5081932;28;20238;-66
2021/05/14 06:32:52;;;;;;;3.33;1.77;;;13.70;99.90;;;;;;5068099;28;20203;-67
2021/05/14 06:35:19;;;;;;;3.47;2.72;;;14.30;99.90;;;;;;5081212;28;20278;-69
2021/05/14 06:37:46;;;;;;;2.20;1.80;;;14.40;99.90;;;;;;5078803;28;20401;-68
2021/05/14 06:40:14;;;;;;;3.92;2.85;;;14.30;99.90;;;;;;5081395;28;20296;-67
2021/05/14 06:42:41;;;;;;;2.50;2.30;;;14.20;99.90;;;;;;5080706;28;20199;-67
2021/05/14 06:45:09;;;;;;;2.20;2.00;;;14.20;99.90;;;;;;5072465;28;20262;-68
2021/05/14 06:47:37;;;;;;;1.80;1.70;;;14.20;99.90;;;;;;5080921;28;20508;-68
2021/05/14 06:50:07;;;;;;;1.92;1.75;;;14.20;99.90;;;;;;5072202;28;20195;-67
2021/05/14 06:52:36;;;;;;;1.67;1.50;;;14.20;99.90;;;;;;5080782;28;20253;-67
2021/05/14 06:55:06;;;;;;;2.03;1.92;;;14.40;99.90;;;;;;5066629;28;20202;-67
2021/05/14 06:57:34;;;;;;;6.32;2.38;;;14.40;99.90;;;;;;5079916;28;20445;-69
2021/05/14 07:00:01;;;;;;;3.67;2.42;;;14.40;99.90;;;;;;5079884;28;20511;-68
2021/05/14 07:02:30;;;;;;;1.10;1.10;;;14.50;99.90;;;;;;5078724;28;20203;-68
2021/05/14 07:05:02;;;;;;;1.85;1.75;;;14.60;99.90;;;;;;5080078;28;20199;-67
2021/05/14 07:07:34;;;;;;;1.67;1.58;;;14.60;99.90;;;;;;5078759;28;20430;-67
2021/05/14 07:10:03;;;;;;;1.52;1.42;;;14.70;99.90;;;;;;5080435;28;20217;-68
2021/05/14 07:12:30;;;;;;;2.08;1.98;;;14.80;99.90;;;;;;5080405;28;20493;-68
2021/05/14 07:14:57;;;;;;;1.40;1.30;;;14.70;99.90;;;;;;5080280;28;20202;-67
2021/05/14 07:17:25;;;;;;;2.08;1.90;;;14.50;99.90;;;;;;5079977;28;20211;-66
2021/05/14 07:19:52;;;;;;;2.13;2.03;;;14.30;99.90;;;;;;5079002;28;20344;-68
2021/05/14 07:22:19;;;;;;;4.18;2.25;;;14.20;99.90;;;;;;5080118;28;20203;-68
2021/05/14 07:24:47;;;;;;;2.20;1.65;;;14.30;99.90;;;;;;5079911;28;20198;-69
2021/05/14 07:27:14;;;;;;;2.50;2.30;;;14.40;99.90;;;;;;5079074;28;20260;-67
2021/05/14 07:29:42;;;;;;;2.17;2.00;;;14.40;99.90;;;;;;5078904;28;20206;-68
2021/05/14 07:32:11;;;;;;;2.20;2.00;;;14.30;99.90;;;;;;5077548;28;20195;-68
2021/05/14 07:34:39;;;;;;;1.98;1.88;;;14.40;99.90;;;;;;5076920;28;20345;-67
2021/05/14 07:37:07;;;;;;;2.25;2.05;;;14.50;99.90;;;;;;5079917;28;20421;-69
2021/05/14 07:39:40;;;;;;;2.65;2.13;;;14.70;99.90;;;;;;5075898;28;20239;-68
2021/05/14 07:42:08;;;;;;;2.92;2.70;;;14.90;99.90;;;;;;5079443;28;20196;-67
2021/05/14 07:44:35;;;;;;;4.05;2.30;;;14.80;99.90;;;;;;5079014;28;20543;-68
2021/05/14 07:47:03;;;;;;;2.05;1.92;;;14.80;99.90;;;;;;5080022;28;20200;-68
2021/05/14 07:49:31;;;;;;;4.95;2.85;;;14.90;99.90;;;;;;5079557;28;20198;-68
2021/05/14 07:51:59;;;;;;;2.45;2.20;;;14.80;99.90;;;;;;5074634;28;20206;-67
2021/05/14 07:54:26;;;;;;;2.53;2.33;;;14.60;99.90;;;;;;5073644;28;20388;-67
2021/05/14 07:56:53;;;;;;;2.75;2.55;;;14.50;99.90;;;;;;5078804;28;20198;-68
2021/05/14 07:59:21;;;;;;;4.25;2.28;;;14.50;99.90;;;;;;5078660;28;20234;-67
2021/05/14 08:01:48;;;;;;;1.90;1.80;;;14.50;99.90;;;;;;5064718;28;20527;-68
2021/05/14 08:04:16;;;;;;;2.30;2.10;;;14.70;99.90;;;;;;5078204;28;20428;-67
2021/05/14 08:06:43;;;;;;;1.40;1.30;;;15.00;99.90;;;;;;5078541;28;20274;-69
2021/05/14 08:09:12;;;;;;;2.10;2.00;;;15.40;99.90;;;;;;5079018;28;20238;-68
2021/05/14 08:11:39;;;;;;;3.33;2.30;;;15.60;99.90;;;;;;5081308;28;20207;-69
2021/05/14 08:14:06;;;;;;;2.15;1.95;;;15.60;99.90;;;;;;5071465;28;20207;-68
2021/05/14 08:16:34;;;;;;;2.17;2.05;;;15.40;99.90;;;;;;5078741;28;20210;-67
2021/05/14 08:19:01;;;;;;;2.08;1.60;;;15.20;99.90;;;;;;5078487;28;20231;-68
2021/05/14 08:21:28;;;;;;;2.20;2.00;;;15.10;99.90;;;;;;5079259;28;20382;-68
2021/05/14 08:23:55;;;;;;;5.10;2.50;;;15.10;99.90;;;;;;5079668;28;20206;-68
2021/05/14 08:26:22;;;;;;;4.20;2.58;;;15.10;99.90;;;;;;5078908;28;20210;-68
2021/05/14 08:28:49;;;;;;;2.50;2.28;;;15.00;99.90;;;;;;5077908;28;20231;-67
2021/05/14 08:31:17;;;;;;;2.03;1.92;;;14.80;99.90;;;;;;5075945;28;20224;-67
2021/05/14 08:33:48;;;;;;;1.92;1.83;;;14.80;99.90;;;;;;5076941;28;20231;-68
2021/05/14 08:36:22;;;;;;;4.20;2.20;;;14.80;99.90;;;;;;5079057;28;20257;-68
2021/05/14 08:38:49;;;;;;;1.75;1.65;;;14.80;99.90;;;;;;5076497;28;20236;-68
2021/05/14 08:41:19;;;;;;;1.73;1.63;;;14.90;99.90;;;;;;5078533;28;20266;-69
2021/05/14 08:43:47;;;;;;;1.55;1.27;;;15.00;99.90;;;;;;5079412;28;20217;-68
2021/05/14 08:46:18;;;;;;;1.73;1.63;;;15.10;99.90;;;;;;5078788;28;20211;-68
2021/05/14 08:48:45;;;;;;;1.75;1.65;;;15.10;99.90;;;;;;5078612;28;20211;-68
2021/05/14 08:51:13;;;;;;;1.85;1.73;;;15.40;99.90;;;;;;5077663;28;20234;-68
2021/05/14 08:53:44;;;;;;;1.83;1.73;;;15.80;99.90;;;;;;5078226;28;20231;-68
2021/05/14 08:56:11;;;;;;;1.50;1.40;;;16.00;99.90;;;;;;5078242;28;20206;-68
2021/05/14 08:58:41;;;;;;;3.67;1.80;;;16.40;99.90;;;;;;5077747;28;20227;-68
2021/05/14 09:01:08;;;;;;;1.90;1.80;;;16.70;99.90;;;;;;5078416;28;20195;-68
2021/05/14 09:03:55;;;;;;;4.00;2.10;;;16.90;99.90;;;;;;5074399;28;20218;-69
2021/05/14 09:06:31;;;;;;;1.97;1.87;;;16.80;99.90;;;;;;5070385;28;20415;-69
2021/05/14 09:09:05;;;;;;;2.00;1.90;;;16.30;99.90;;;;;;5078347;28;20448;-68
2021/05/14 09:11:35;;;;;;;2.35;2.20;;;15.80;99.90;;;;;;5079194;28;20437;-68
2021/05/14 09:14:04;;;;;;;2.72;2.53;;;15.40;99.90;;;;;;5078519;28;20242;-69
2021/05/14 09:16:44;;;;;;;2.38;2.22;;;15.10;99.90;;;;;;5079071;28;20221;-69
2021/05/14 09:19:11;;;;;;;2.35;2.15;;;14.80;99.90;;;;;;5076680;28;20234;-68
2021/05/14 09:21:43;;;;;;;2.95;2.75;;;15.00;99.90;;;;;;5072090;28;20404;-68
2021/05/14 09:24:11;;;;;;;3.30;3.00;;;15.40;99.90;;;;;;5080466;28;20446;-67
2021/05/14 09:26:38;;;;;;;2.95;2.75;;;15.70;99.90;;;;;;5082162;28;20238;-68
2021/05/14 09:29:38;;;;;;;3.58;3.22;;;15.70;99.90;;;;;;5082212;28;20232;-68
2021/05/14 09:32:19;;;;;;;3.08;2.20;;;15.60;99.90;;;;;;5081858;28;20241;-68
2021/05/14 09:34:54;;;;;;;2.47;2.28;;;15.40;99.90;;;;;;5082475;28;20197;-67
2021/05/14 09:37:25;;;;;;;2.40;2.20;;;15.20;99.90;;;;;;5082035;28;20266;-66
2021/05/14 09:40:19;;;;;;;2.55;2.35;;;15.30;99.90;;;;;;5082426;28;20272;-67
2021/05/14 09:42:49;;;;;;;4.13;3.00;;;15.20;99.90;;;;;;5083801;28;20267;-68
2021/05/14 09:45:21;;;;;;;3.78;2.47;;;15.20;99.90;;;;;;5082760;28;20244;-67
2021/05/14 09:48:18;;;;;;;2.67;2.47;;;15.00;99.90;;;;;;5082599;28;20207;-68
2021/05/14 09:50:46;;;;;;;2.63;2.42;;;15.10;99.90;;;;;;5072571;28;20260;-67
2021/05/14 09:53:18;;;;;;;2.65;2.47;;;15.40;99.90;;;;;;5082150;28;20266;-67
2021/05/14 09:55:51;;;;;;;2.95;2.75;;;15.60;99.90;;;;;;5080323;28;20195;-67
2021/05/14 09:58:25;;;;;;;1.80;1.70;;;15.60;99.90;;;;;;5082011;28;20214;-67
2021/05/14 10:00:55;;;;;;;3.53;3.15;;;15.60;99.90;;;;;;5080237;28;20222;-67
2021/05/14 10:03:25;;;;;;;3.20;3.00;;;15.40;99.90;;;;;;5079047;28;20203;-68
2021/05/14 10:05:56;;;;;;;2.90;2.70;;;15.50;99.90;;;;;;5064111;28;20207;-67
2021/05/14 10:08:31;;;;;;;2.30;2.20;;;15.70;99.90;;;;;;5074161;28;20287;-68
2021/05/14 10:11:04;;;;;;;3.58;3.10;;;15.80;99.90;;;;;;5077571;28;20533;-69
2021/05/14 10:13:32;;;;;;;2.63;2.45;;;15.80;99.90;;;;;;5110700;28;20207;-69
2021/05/14 10:16:04;;;;;;;2.78;2.58;;;15.80;99.90;;;;;;5078080;28;20230;-68
2021/05/14 10:18:42;;;;;;;3.97;3.67;;;15.90;99.90;;;;;;5082032;28;20208;-68
2021/05/14 10:21:11;;;;;;;2.47;2.28;;;16.00;99.90;;;;;;5081244;28;20420;-69
2021/05/14 10:23:53;;;;;;;2.85;2.65;;;15.90;99.90;;;;;;5082279;28;20202;-67
2021/05/14 10:26:20;;;;;;;2.72;2.53;;;15.90;99.90;;;;;;5079235;28;20582;-68
2021/05/14 10:28:49;;;;;;;4.20;2.92;;;15.70;99.90;;;;;;5081630;28;20214;-69
2021/05/14 10:31:22;;;;;;;3.60;3.03;;;15.60;99.90;;;;;;5081808;28;20245;-67
2021/05/14 10:33:53;;;;;;;2.80;2.60;;;15.60;99.90;;;;;;5078719;28;20210;-69
2021/05/14 10:36:21;;;;;;;3.10;2.90;;;15.40;99.90;;;;;;5109300;28;20269;-67
2021/05/14 10:39:04;;;;;;;2.97;2.75;;;15.30;99.90;;;;;;5076507;28;20207;-67
2021/05/14 10:41:32;;;;;;;3.63;3.33;;;15.40;99.90;;;;;;5079528;28;20203;-67
2021/05/14 10:44:07;;;;;;;5.60;4.50;;;15.30;99.90;;;;;;5079098;28;20201;-69
2021/05/14 10:46:34;;;;;;;3.88;3.58;;;15.40;99.90;;;;;;5079933;28;20198;-68
2021/05/14 10:49:09;;;;;;;3.67;3.40;;;15.50;99.90;;;;;;5075452;28;20212;-68
2021/05/14 10:51:57;;;;;;;3.70;3.40;;;15.80;99.90;;;;;;5079952;28;20469;-70
2021/05/14 10:54:43;;;;;;;3.97;3.67;;;16.10;99.90;;;;;;5064294;28;20252;-68
2021/05/14 10:57:13;;;;;;;3.00;2.80;;;16.30;99.90;;;;;;5073167;28;20455;-69
2021/05/14 10:59:44;;;;;;;3.30;3.00;;;16.40;99.90;;;;;;5080796;28;20306;-70
2021/05/14 11:02:33;;;;;;;3.28;3.08;;;16.30;99.90;;;;;;5073064;28;20206;-69
2021/05/14 11:05:03;;;;;;;3.05;2.85;;;16.30;99.90;;;;;;5081249;28;20239;-69
2021/05/14 11:07:52;;;;;;;3.20;2.90;;;16.50;99.70;;;;;;5067328;28;20201;-69
2021/05/14 11:10:29;;;;;;;4.53;3.17;;;16.60;99.70;;;;;;5067321;28;20484;-67
2021/05/14 11:12:58;;;;;;;3.20;3.00;;;16.40;99.90;;;;;;5060730;28;20474;-68
2021/05/14 11:15:28;;;;;;;3.08;2.95;;;16.00;99.90;;;;;;5068845;28;20215;-68
2021/05/14 11:18:14;;;;;;;3.30;3.00;;;15.70;99.90;;;;;;5079313;28;20215;-67
2021/05/14 11:20:43;;;;;;;3.28;2.95;;;15.60;99.90;;;;;;5075752;28;20226;-70
2021/05/14 11:23:29;;;;;;;3.13;2.90;;;15.50;99.90;;;;;;5079960;28;20409;-69
2021/05/14 11:25:56;;;;;;;3.20;3.00;;;15.40;99.90;;;;;;5075693;28;20222;-67
2021/05/14 11:29:00;;;;;;;3.50;3.30;;;15.50;99.90;;;;;;5076539;28;20612;-68
2021/05/14 11:31:29;;;;;;;3.60;3.28;;;15.30;99.90;;;;;;5058041;28;20612;-68
2021/05/14 11:33:58;;;;;;;3.65;3.42;;;15.30;99.90;;;;;;5065175;28;20270;-68
2021/05/14 11:36:25;;;;;;;4.25;3.92;;;15.40;99.90;;;;;;5080030;28;20231;-68
2021/05/14 11:38:59;;;;;;;2.70;2.50;;;15.70;99.90;;;;;;5073344;28;20345;-68
2021/05/14 11:41:33;;;;;;;3.17;2.88;;;16.00;99.90;;;;;;5073402;28;20234;-68
2021/05/14 11:44:05;;;;;;;3.65;3.35;;;16.20;99.90;;;;;;5079717;28;20198;-68
2021/05/14 11:46:33;;;;;;;2.92;2.72;;;16.60;99.80;;;;;;5075267;28;20220;-70
2021/05/14 11:49:06;;;;;;;3.23;2.93;;;17.10;98.60;;;;;;5070512;28;20209;-69
2021/05/14 11:51:38;;;;;;;4.10;3.60;;;17.30;98.70;;;;;;5079729;28;20767;-69
2021/05/14 11:54:13;;;;;;;4.70;4.07;;;17.20;98.10;;;;;;5079821;28;20638;-69
2021/05/14 11:56:43;;;;;;;3.57;3.20;;;16.90;98.70;;;;;;5076261;28;20743;-68
2021/05/14 11:59:22;;;;;;;3.40;3.20;;;16.80;99.00;;;;;;5076267;28;20456;-69
2021/05/14 12:01:53;;;;;;;3.20;3.00;;;16.70;98.90;;;;;;5073013;28;20635;-69
2021/05/14 12:04:23;;;;;;;4.20;3.37;;;16.90;98.60;;;;;;5074525;28;20428;-71
2021/05/14 12:06:52;;;;;;;3.20;3.00;;;16.90;98.50;;;;;;5078205;28;20499;-68
2021/05/14 12:09:22;;;;;;;3.10;2.90;;;16.70;99.00;;;;;;5078069;28;20769;-69
2021/05/14 12:11:49;;;;;;;2.77;2.57;;;16.50;99.10;;;;;;5077253;28;20464;-68
2021/05/14 12:14:23;;;;;;;3.27;2.70;;;16.30;99.40;;;;;;5076559;28;20428;-70
2021/05/14 12:16:52;;;;;;;3.27;2.67;;;16.40;99.30;;;;;;5077795;28;20423;-70
2021/05/14 12:19:21;;;;;;;2.50;2.40;;;16.80;98.20;;;;;;5073967;28;20782;-69
2021/05/14 12:21:49;;;;;;;3.27;2.70;;;17.10;97.70;;;;;;5074858;28;20254;-68
2021/05/14 12:24:19;;;;;;;2.73;2.53;;;17.20;97.70;;;;;;5074380;28;20429;-67
2021/05/14 12:26:47;;;;;;;3.70;2.27;;;17.40;97.30;;;;;;5057876;28;20426;-69
2021/05/14 12:29:27;;;;;;;5.60;3.00;;;17.20;97.30;;;;;;5057915;28;20487;-69
2021/05/14 12:32:00;;;;;;;2.67;2.53;;;17.00;98.20;;;;;;5067277;28;20413;-69
2021/05/14 12:34:28;;;;;;;2.23;2.13;;;17.00;98.20;;;;;;5078948;28;20451;-69
2021/05/14 12:36:58;;;;;;;2.70;2.30;;;17.10;97.60;;;;;;5079815;28;20702;-68
2021/05/14 12:39:29;;;;;;;2.10;2.00;;;16.90;97.70;;;;;;5079564;28;20488;-68
2021/05/14 12:42:01;;;;;;;2.93;2.73;;;16.80;97.90;;;;;;5079500;28;20434;-68
2021/05/14 12:44:35;;;;;;;1.90;1.80;;;16.90;97.60;;;;;;5068393;28;20505;-69
2021/05/14 12:47:14;;;;;;;2.20;2.10;;;16.90;97.80;;;;;;5071731;28;20645;-69
2021/05/14 12:50:02;;;;;;;3.20;2.20;;;16.90;97.70;;;;;;5072574;28;20530;-69
2021/05/14 12:52:37;;;;;;;2.53;2.33;;;16.50;98.40;;;;;;5062704;28;20431;-69
2021/05/14 12:55:17;;;;;;;2.03;1.90;;;16.60;98.50;;;;;;5075817;28;20494;-69
2021/05/14 12:57:52;;;;;;;2.00;1.90;;;16.30;99.00;;;;;;5081025;28;20410;-67
2021/05/14 13:00:28;;;;;;;2.53;2.43;;;16.50;98.50;;;;;;5083500;28;20451;-69
2021/05/14 13:03:01;;;;;;;2.47;2.33;;;16.80;97.90;;;;;;5077733;28;20434;-70